This is the latest recevied weather packets stored in our database for station/object HS6BUE-3. If no packets are shown the sender has not sent any weather packets the latest 10 day(s).
| Time | Temp. | Humidity | Pressure | Rain* | Wind** | Luminosity | Snow |
|---|---|---|---|---|---|---|---|
| 1777953555 | 28.33° C | 47% | 1007 hPa | - | - | 0 W/m² | - |
| 1777952932 | 27.78° C | 44% | 1007 hPa | - | - | 0 W/m² | - |
| 1777952309 | 27.78° C | 43% | 1007 hPa | - | - | 0 W/m² | - |
| 1777951687 | 27.78° C | 48% | 1007 hPa | - | - | 0 W/m² | - |
| 1777951064 | 28.33° C | 50% | 1007 hPa | - | - | 0 W/m² | - |
| 1777950442 | 27.78° C | 41% | 1008 hPa | - | - | 0 W/m² | - |
| 1777949819 | 27.78° C | 42% | 1008 hPa | - | - | 0 W/m² | - |
| 1777949196 | 27.78° C | 41% | 1008 hPa | - | - | 0 W/m² | - |
| 1777948573 | 27.78° C | 45% | 1008 hPa | - | - | 0 W/m² | - |
| 1777947951 | 27.78° C | 43% | 1008 hPa | - | - | 0 W/m² | - |
| 1777947328 | 27.78° C | 41% | 1008 hPa | - | - | 0 W/m² | - |
| 1777946705 | 27.22° C | 42% | 1008 hPa | - | - | 0 W/m² | - |
| 1777946083 | 27.22° C | 45% | 1008 hPa | - | - | 0 W/m² | - |
| 1777945460 | 27.78° C | 42% | 1008 hPa | - | - | 0 W/m² | - |
| 1777944837 | 27.78° C | 43% | 1008 hPa | - | - | 0 W/m² | - |
| 1777944215 | 27.78° C | 44% | 1008 hPa | - | - | 0 W/m² | - |
| 1777943592 | 27.78° C | 36% | 1008 hPa | - | - | 0 W/m² | - |
| 1777942969 | 28.33° C | 38% | 1007 hPa | - | - | 0 W/m² | - |
| 1777942346 | 29.44° C | 40% | 1007 hPa | - | - | 0 W/m² | - |
| 1777941724 | 31.11° C | 46% | 1007 hPa | - | - | 0 W/m² | - |
| 1777941101 | 32.22° C | 51% | 1007 hPa | - | - | 0 W/m² | - |
| 1777940478 | 32.22° C | 51% | 1007 hPa | - | - | 0 W/m² | - |
| 1777939858 | 31.67° C | 51% | 1007 hPa | - | - | 0 W/m² | - |
| 1777939232 | 31.67° C | 50% | 1007 hPa | - | - | 0 W/m² | - |
| 1777938610 | 31.67° C | 50% | 1007 hPa | - | - | 0 W/m² | - |
* Rain since midnight (hover to see other rain measurements)
** Current wind speed in m/s (hover to see current wind gust speed)